createdAt,value
2017-05-04T00:01:00.444Z,11.37
2017-05-04T00:02:01.214Z,11.35
2017-05-04T00:03:02.238Z,11.25
2017-05-04T00:04:03.010Z,11.30
2017-05-04T00:05:03.972Z,11.33
2017-05-04T00:06:04.742Z,11.30
2017-05-04T00:07:05.515Z,11.36
2017-05-04T00:08:06.539Z,11.29
2017-05-04T00:09:07.311Z,11.30
2017-05-04T00:10:08.083Z,11.45
2017-05-04T00:11:08.855Z,11.47
2017-05-04T00:12:09.628Z,11.44
2017-05-04T00:13:10.647Z,11.40
2017-05-04T00:14:11.417Z,11.43
2017-05-04T00:15:12.378Z,11.44
2017-05-04T00:16:13.148Z,11.41
2017-05-04T00:17:13.917Z,11.40
2017-05-04T00:18:14.943Z,11.44
2017-05-04T00:19:15.711Z,11.45
2017-05-04T00:20:16.480Z,11.43
2017-05-04T00:21:17.253Z,11.41
2017-05-04T00:22:18.026Z,11.43
2017-05-04T00:23:19.049Z,11.44
2017-05-04T00:24:19.817Z,11.35
2017-05-04T00:25:20.588Z,11.47
2017-05-04T00:26:21.358Z,11.36
2017-05-04T00:27:22.128Z,11.54
2017-05-04T00:28:23.151Z,11.41
2017-05-04T00:29:23.923Z,11.41
2017-05-04T00:30:24.694Z,11.36
2017-05-04T00:31:25.464Z,11.37
2017-05-04T00:32:26.234Z,11.37
2017-05-04T00:33:27.253Z,11.47
2017-05-04T00:34:28.026Z,11.43
2017-05-04T00:35:28.794Z,11.40
2017-05-04T00:36:29.863Z,11.37
2017-05-04T00:37:30.632Z,11.54
2017-05-04T00:38:31.399Z,11.45
2017-05-04T00:39:32.167Z,11.43
2017-05-04T00:40:32.934Z,11.43
2017-05-04T00:41:34.004Z,11.44
2017-05-04T00:42:34.774Z,11.36
2017-05-04T00:43:35.545Z,11.43
2017-05-04T00:44:36.320Z,11.52
2017-05-04T00:45:37.086Z,11.43
2017-05-04T00:46:38.106Z,11.40
2017-05-04T00:47:38.875Z,11.37
2017-05-04T00:48:39.643Z,11.41
2017-05-04T00:49:40.413Z,11.55
2017-05-04T00:50:41.182Z,11.41
2017-05-04T00:51:42.201Z,11.52
2017-05-04T00:52:42.971Z,11.40
2017-05-04T00:53:43.740Z,11.40
2017-05-04T00:54:44.509Z,11.43
2017-05-04T00:55:45.280Z,11.40
2017-05-04T00:56:46.302Z,11.40
2017-05-04T00:57:47.071Z,11.41
2017-05-04T00:58:47.838Z,11.43
2017-05-04T00:59:48.789Z,11.45
2017-05-04T01:00:49.561Z,11.44
2017-05-04T01:01:50.578Z,11.43
2017-05-04T01:02:51.347Z,11.37
2017-05-04T01:03:52.116Z,11.35
2017-05-04T01:04:52.888Z,11.35
2017-05-04T01:05:53.658Z,11.43
2017-05-04T01:06:54.726Z,11.43
2017-05-04T01:07:55.495Z,11.40
2017-05-04T01:08:56.264Z,11.44
2017-05-04T01:09:57.034Z,11.36
2017-05-04T01:10:57.804Z,11.32
2017-05-04T01:11:58.823Z,11.37
2017-05-04T01:12:59.594Z,11.33
2017-05-04T01:14:00.360Z,11.37
2017-05-04T01:15:01.132Z,11.33
2017-05-04T01:16:01.902Z,11.26
2017-05-04T01:17:02.918Z,11.36
2017-05-04T01:18:03.876Z,11.40
2017-05-04T01:19:04.641Z,11.25
2017-05-04T01:20:05.411Z,11.43
2017-05-04T01:21:06.175Z,11.32
2017-05-04T01:22:07.195Z,11.35
2017-05-04T01:23:07.962Z,11.30
2017-05-04T01:24:08.730Z,11.33
2017-05-04T01:25:09.495Z,11.35
2017-05-04T01:26:10.265Z,11.27
2017-05-04T01:27:11.281Z,11.29
2017-05-04T01:28:12.048Z,11.22
2017-05-04T01:29:12.818Z,11.23
2017-05-04T01:30:13.586Z,11.27
2017-05-04T01:31:14.353Z,11.15
2017-05-04T01:32:15.371Z,11.26
2017-05-04T01:33:16.138Z,11.19
2017-05-04T01:34:16.908Z,11.19
2017-05-04T01:35:17.675Z,11.19
2017-05-04T01:36:18.443Z,11.18
2017-05-04T01:37:19.513Z,11.18
2017-05-04T01:38:20.278Z,11.11
2017-05-04T01:39:21.045Z,11.15
2017-05-04T01:40:21.813Z,11.14
2017-05-04T01:41:22.580Z,11.11
2017-05-04T01:42:23.599Z,11.08
2017-05-04T01:43:24.368Z,11.07
2017-05-04T01:44:25.136Z,11.15
2017-05-04T01:45:25.902Z,11.08
2017-05-04T01:46:26.671Z,11.00
2017-05-04T01:47:27.875Z,10.90
2017-05-04T01:48:28.642Z,11.04
2017-05-04T01:49:29.409Z,10.99
2017-05-04T01:50:30.177Z,10.97
2017-05-04T01:51:30.945Z,10.89
2017-05-04T01:52:31.965Z,10.94
2017-05-04T01:53:32.732Z,10.99
2017-05-04T01:54:33.499Z,10.96
2017-05-04T01:55:34.271Z,10.93
2017-05-04T01:56:35.060Z,10.93
2017-05-04T01:57:36.053Z,10.86
2017-05-04T01:58:36.820Z,10.93
2017-05-04T01:59:37.588Z,10.81
2017-05-04T02:00:38.354Z,10.81
2017-05-04T02:01:39.122Z,10.92
2017-05-04T02:02:40.139Z,10.82
2017-05-04T02:03:40.907Z,10.82
2017-05-04T02:04:41.671Z,10.82
2017-05-04T02:05:42.437Z,10.72
2017-05-04T02:06:43.204Z,10.78
2017-05-04T02:07:44.223Z,10.78
2017-05-04T02:08:44.994Z,10.69
2017-05-04T02:09:45.758Z,10.69
2017-05-04T02:10:46.524Z,10.76
2017-05-04T02:11:47.294Z,10.72
2017-05-04T02:12:48.311Z,10.72
2017-05-04T02:13:49.076Z,10.69
2017-05-04T02:14:49.844Z,10.63
2017-05-04T02:15:50.614Z,10.69
2017-05-04T02:16:51.575Z,10.59
2017-05-04T02:17:52.588Z,10.67
2017-05-04T02:18:53.543Z,10.59
2017-05-04T02:19:54.315Z,10.56
2017-05-04T02:20:55.079Z,10.59
2017-05-04T02:21:55.849Z,10.61
2017-05-04T02:22:56.912Z,10.57
2017-05-04T02:23:57.678Z,10.54
2017-05-04T02:24:58.447Z,10.56
2017-05-04T02:25:59.210Z,10.57
2017-05-04T02:26:59.978Z,10.49
2017-05-04T02:28:00.995Z,10.48
2017-05-04T02:29:01.763Z,10.56
2017-05-04T02:30:02.529Z,10.46
2017-05-04T02:31:03.295Z,10.51
2017-05-04T02:32:04.062Z,10.44
2017-05-04T02:33:05.078Z,10.41
2017-05-04T02:34:05.844Z,10.51
2017-05-04T02:35:06.614Z,10.44
2017-05-04T02:36:07.381Z,10.48
2017-05-04T02:37:08.148Z,10.40
2017-05-04T02:38:09.163Z,10.44
2017-05-04T02:39:09.938Z,10.46
2017-05-04T02:40:10.704Z,10.40
2017-05-04T02:41:11.471Z,10.38
2017-05-04T02:42:12.235Z,10.44
2017-05-04T02:43:13.304Z,10.46
2017-05-04T02:44:14.073Z,10.40
2017-05-04T02:45:14.840Z,10.42
2017-05-04T02:46:15.611Z,10.42
2017-05-04T02:47:16.378Z,10.41
2017-05-04T02:48:17.445Z,10.38
2017-05-04T02:49:18.211Z,10.38
2017-05-04T02:50:18.976Z,10.34
2017-05-04T02:51:19.744Z,10.35
2017-05-04T02:52:20.527Z,10.33
2017-05-04T02:53:21.532Z,10.34
2017-05-04T02:54:22.298Z,10.33
2017-05-04T02:55:23.065Z,10.28
2017-05-04T02:56:23.834Z,10.31
2017-05-04T02:57:24.599Z,10.23
2017-05-04T02:58:25.614Z,10.25
2017-05-04T02:59:26.381Z,10.16
2017-05-04T03:00:27.151Z,10.15
2017-05-04T03:01:27.918Z,10.23
2017-05-04T03:02:28.686Z,10.19
2017-05-04T03:04:31.429Z,10.13
2017-05-04T03:05:32.197Z,10.15
2017-05-04T03:06:32.965Z,10.09
2017-05-04T03:07:33.732Z,10.09
2017-05-04T03:08:34.749Z,10.10
2017-05-04T03:09:35.516Z,10.05
2017-05-04T03:10:36.281Z,9.99
2017-05-04T03:11:37.050Z,10.01
2017-05-04T03:12:37.818Z,10.05
2017-05-04T03:13:38.885Z,9.99
2017-05-04T03:14:39.650Z,9.95
2017-05-04T03:15:40.419Z,9.83
2017-05-04T03:16:41.186Z,9.92
2017-05-04T03:17:41.952Z,9.84
2017-05-04T03:18:42.969Z,9.86
2017-05-04T03:19:43.737Z,9.80
2017-05-04T03:20:44.502Z,9.74
2017-05-04T03:21:45.265Z,9.76
2017-05-04T03:22:46.030Z,9.82
2017-05-04T03:23:47.047Z,9.68
2017-05-04T03:24:47.810Z,9.64
2017-05-04T03:25:48.578Z,9.64
2017-05-04T03:26:49.341Z,9.72
2017-05-04T03:27:50.109Z,9.65
2017-05-04T03:28:51.127Z,9.59
2017-05-04T03:29:51.891Z,9.54
2017-05-04T03:30:52.659Z,9.51
2017-05-04T03:31:53.421Z,9.51
2017-05-04T03:32:54.188Z,9.47
2017-05-04T03:33:55.207Z,9.40
2017-05-04T03:34:55.969Z,9.41
2017-05-04T03:35:56.735Z,9.47
2017-05-04T03:36:57.503Z,9.51
2017-05-04T03:37:58.270Z,9.41
2017-05-04T03:38:59.286Z,9.36
2017-05-04T03:40:00.053Z,9.36
2017-05-04T03:41:00.818Z,9.32
2017-05-04T03:42:01.585Z,9.32
2017-05-04T03:43:02.380Z,9.32
2017-05-04T03:44:03.418Z,9.29
2017-05-04T03:45:04.187Z,9.34
2017-05-04T03:46:04.953Z,9.32
2017-05-04T03:47:05.717Z,9.37
2017-05-04T03:48:06.483Z,9.43
2017-05-04T03:49:07.550Z,9.41
2017-05-04T03:50:08.315Z,9.40
2017-05-04T03:51:09.079Z,9.41
2017-05-04T03:52:09.845Z,9.39
2017-05-04T03:53:10.609Z,9.54
2017-05-04T03:54:11.628Z,9.51
2017-05-04T03:55:12.393Z,9.55
2017-05-04T03:56:13.160Z,9.51
2017-05-04T03:57:13.928Z,9.54
2017-05-04T03:58:14.694Z,9.56
2017-05-04T03:59:15.713Z,9.55
2017-05-04T04:00:16.480Z,9.54
2017-05-04T04:01:17.246Z,9.55
2017-05-04T04:02:18.012Z,9.58
2017-05-04T04:03:18.780Z,9.62
2017-05-04T04:04:19.799Z,9.68
2017-05-04T04:05:20.564Z,9.68
2017-05-04T04:06:21.331Z,9.68
2017-05-04T04:07:22.100Z,9.61
2017-05-04T04:08:22.868Z,9.66
2017-05-04T04:09:23.888Z,9.74
2017-05-04T04:10:24.655Z,9.74
2017-05-04T04:11:25.424Z,9.77
2017-05-04T04:12:26.195Z,9.74
2017-05-04T04:13:26.964Z,9.69
2017-05-04T04:14:27.984Z,9.65
2017-05-04T04:15:28.752Z,9.76
2017-05-04T04:16:29.522Z,9.72
2017-05-04T04:17:30.293Z,9.76
2017-05-04T04:18:31.062Z,9.68
2017-05-04T04:19:32.078Z,9.72
2017-05-04T04:20:32.851Z,9.69
2017-05-04T04:21:33.618Z,9.68
2017-05-04T04:22:34.391Z,9.61
2017-05-04T04:23:35.156Z,9.72
2017-05-04T04:24:36.176Z,9.65
2017-05-04T04:25:36.947Z,9.68
2017-05-04T04:26:37.714Z,9.59
2017-05-04T04:27:38.483Z,9.58
2017-05-04T04:28:39.252Z,9.69
2017-05-04T04:29:40.271Z,9.69
2017-05-04T04:30:41.038Z,9.64
2017-05-04T04:31:41.809Z,9.61
2017-05-04T04:32:42.579Z,9.66
2017-05-04T04:33:43.347Z,9.65
2017-05-04T04:34:44.365Z,9.61
2017-05-04T04:35:45.138Z,9.62
2017-05-04T04:36:45.908Z,9.61
2017-05-04T04:37:46.680Z,9.61
2017-05-04T04:38:47.451Z,9.65
2017-05-04T04:39:48.523Z,9.65
2017-05-04T04:40:49.299Z,9.55
2017-05-04T04:41:50.068Z,9.51
2017-05-04T04:42:50.837Z,9.48
2017-05-04T04:43:51.606Z,9.56
2017-05-04T04:44:52.627Z,9.56
2017-05-04T04:45:53.399Z,9.50
2017-05-04T04:46:54.169Z,9.55
2017-05-04T04:47:54.938Z,9.55
2017-05-04T04:48:55.712Z,9.41
2017-05-04T04:49:56.778Z,9.59
2017-05-04T04:50:57.548Z,9.55
2017-05-04T04:51:58.324Z,9.56
2017-05-04T04:52:59.090Z,9.56
2017-05-04T04:53:59.863Z,9.51
2017-05-04T04:55:00.882Z,9.59
2017-05-04T04:56:01.656Z,9.51
2017-05-04T04:57:02.427Z,9.54
2017-05-04T04:58:03.197Z,9.50
2017-05-04T04:59:03.964Z,9.51
2017-05-04T05:00:04.984Z,9.61
2017-05-04T05:01:05.753Z,9.61
2017-05-04T05:02:06.523Z,9.68
2017-05-04T05:03:07.296Z,9.64
2017-05-04T05:04:08.066Z,9.80
2017-05-04T05:05:09.088Z,9.84
2017-05-04T05:06:09.859Z,9.84
2017-05-04T05:07:10.631Z,9.98
2017-05-04T05:08:11.402Z,10.01
2017-05-04T05:09:12.172Z,9.98
2017-05-04T05:10:13.243Z,10.04
2017-05-04T05:11:14.013Z,10.04
2017-05-04T05:12:14.783Z,10.02
2017-05-04T05:13:15.553Z,10.02
2017-05-04T05:14:16.322Z,10.13
2017-05-04T05:15:17.393Z,10.17
2017-05-04T05:16:18.163Z,10.16
2017-05-04T05:17:18.934Z,10.15
2017-05-04T05:18:19.705Z,10.26
2017-05-04T05:19:20.477Z,10.33
2017-05-04T05:20:21.548Z,10.34
2017-05-04T05:21:22.322Z,10.31
2017-05-04T05:22:23.092Z,10.30
2017-05-04T05:23:23.864Z,10.30
2017-05-04T05:24:24.637Z,10.35
2017-05-04T05:25:25.661Z,10.38
2017-05-04T05:26:26.434Z,10.44
2017-05-04T05:27:27.209Z,10.38
2017-05-04T05:28:27.981Z,10.46
2017-05-04T05:29:28.754Z,10.41
2017-05-04T05:30:29.777Z,10.59
2017-05-04T05:31:30.559Z,10.53
2017-05-04T05:32:31.320Z,10.56
2017-05-04T05:33:32.096Z,10.61
2017-05-04T05:34:32.872Z,10.67
2017-05-04T05:35:33.948Z,10.63
2017-05-04T05:36:34.724Z,10.67
2017-05-04T05:37:35.497Z,10.67
2017-05-04T05:38:36.273Z,10.74
2017-05-04T05:39:37.045Z,10.78
2017-05-04T05:40:38.070Z,10.82
2017-05-04T05:41:38.842Z,10.74
2017-05-04T05:42:39.620Z,10.87
2017-05-04T05:43:40.398Z,11.08
2017-05-04T05:44:41.169Z,11.05
2017-05-04T05:45:42.190Z,10.96
2017-05-04T05:46:42.966Z,11.07
2017-05-04T05:47:43.740Z,11.08
2017-05-04T05:48:44.513Z,11.12
2017-05-04T05:49:45.288Z,11.11
2017-05-04T05:50:46.310Z,11.17
2017-05-04T05:51:47.084Z,11.15
2017-05-04T05:52:47.861Z,11.30
2017-05-04T05:53:48.636Z,11.30
2017-05-04T05:54:49.411Z,11.33
2017-05-04T05:55:50.436Z,11.29
2017-05-04T05:56:51.209Z,11.37
2017-05-04T05:57:51.982Z,11.35
2017-05-04T05:58:52.754Z,11.41
2017-05-04T05:59:53.531Z,11.50
2017-05-04T06:00:54.553Z,11.48
2017-05-04T06:01:55.334Z,11.52
2017-05-04T06:02:56.103Z,11.54
2017-05-04T06:03:56.878Z,11.54
2017-05-04T06:04:57.655Z,11.55
2017-05-04T06:05:58.677Z,11.72
2017-05-04T06:06:59.451Z,11.73
2017-05-04T06:08:00.228Z,11.78
2017-05-04T06:09:00.999Z,11.95
2017-05-04T06:10:01.774Z,11.87
2017-05-04T06:11:02.797Z,11.88
2017-05-04T06:12:03.575Z,11.88
2017-05-04T06:13:04.349Z,11.90
2017-05-04T06:14:05.125Z,11.83
2017-05-04T06:15:05.900Z,11.97
2017-05-04T06:16:06.925Z,12.02
2017-05-04T06:17:07.696Z,12.00
2017-05-04T06:18:08.476Z,12.03
2017-05-04T06:19:09.253Z,11.90
2017-05-04T06:20:10.022Z,11.91
2017-05-04T06:21:11.047Z,11.88
2017-05-04T06:22:11.823Z,11.90
2017-05-04T06:23:12.597Z,12.02
2017-05-04T06:24:13.369Z,11.84
2017-05-04T06:25:14.145Z,11.91
2017-05-04T06:26:15.172Z,11.83
2017-05-04T06:27:15.950Z,11.91
2017-05-04T06:28:16.721Z,11.88
2017-05-04T06:29:17.497Z,11.84
2017-05-04T06:30:18.461Z,11.99
2017-05-04T06:31:19.486Z,11.97
2017-05-04T06:32:20.259Z,11.95
2017-05-04T06:33:21.034Z,11.84
2017-05-04T06:34:21.807Z,11.77
2017-05-04T06:35:22.583Z,11.69
2017-05-04T06:36:23.608Z,11.75
2017-05-04T06:37:24.385Z,11.68
2017-05-04T06:38:25.158Z,11.80
2017-05-04T06:39:25.932Z,11.84
2017-05-04T06:40:26.710Z,11.84
2017-05-04T06:41:27.736Z,11.90
2017-05-04T06:42:28.509Z,12.20
2017-05-04T06:43:29.282Z,12.29
2017-05-04T06:44:30.057Z,12.24
2017-05-04T06:45:30.832Z,12.24
2017-05-04T06:46:31.856Z,12.25
2017-05-04T06:47:32.630Z,12.28
2017-05-04T06:48:33.404Z,12.28
2017-05-04T06:49:34.181Z,12.25
2017-05-04T06:50:34.957Z,12.22
2017-05-04T06:51:36.034Z,12.28
2017-05-04T06:52:36.814Z,12.28
2017-05-04T06:53:37.586Z,12.28
2017-05-04T06:54:38.362Z,12.25
2017-05-04T06:55:39.137Z,12.28
2017-05-04T06:56:40.163Z,12.28
2017-05-04T06:57:40.937Z,12.20
2017-05-04T06:58:41.713Z,12.40
2017-05-04T06:59:42.490Z,12.49
2017-05-04T07:00:43.266Z,12.37
2017-05-04T07:01:44.296Z,12.32
2017-05-04T07:02:45.071Z,12.24
2017-05-04T07:03:45.845Z,12.27
2017-05-04T07:04:46.620Z,12.29
2017-05-04T07:05:47.396Z,12.15
2017-05-04T07:06:48.421Z,12.20
2017-05-04T07:07:49.199Z,12.24
2017-05-04T07:08:49.975Z,12.35
2017-05-04T07:09:50.748Z,12.10
2017-05-04T07:10:51.524Z,12.02
2017-05-04T07:11:52.600Z,12.18
2017-05-04T07:12:53.376Z,12.27
2017-05-04T07:13:54.155Z,12.28
2017-05-04T07:14:54.929Z,12.39
2017-05-04T07:15:55.707Z,12.47
2017-05-04T07:16:56.782Z,12.53
2017-05-04T07:17:57.560Z,12.49
2017-05-04T07:18:58.338Z,12.55
2017-05-04T07:19:59.116Z,12.62
2017-05-04T07:20:59.896Z,12.70
2017-05-04T07:22:00.925Z,12.76
2017-05-04T07:23:01.702Z,12.76
2017-05-04T07:24:02.500Z,12.80
2017-05-04T07:25:03.259Z,12.86
2017-05-04T07:26:04.032Z,12.76
2017-05-04T07:27:05.058Z,12.61
2017-05-04T07:28:05.838Z,12.86
2017-05-04T07:29:06.617Z,12.82
2017-05-04T07:30:07.585Z,12.73
2017-05-04T07:31:08.361Z,12.80
2017-05-04T07:32:09.390Z,12.75
2017-05-04T07:33:10.165Z,12.76
2017-05-04T07:34:10.944Z,12.85
2017-05-04T07:35:11.723Z,12.85
2017-05-04T07:36:12.501Z,12.79
2017-05-04T07:37:13.529Z,12.85
2017-05-04T07:38:14.307Z,12.80
2017-05-04T07:39:15.087Z,12.85
2017-05-04T07:40:15.865Z,13.05
2017-05-04T07:41:16.645Z,13.15
2017-05-04T07:42:17.859Z,13.37
2017-05-04T07:43:18.635Z,13.42
2017-05-04T07:44:19.411Z,13.59
2017-05-04T07:45:20.189Z,13.60
2017-05-04T07:46:20.972Z,13.46
2017-05-04T07:47:21.997Z,13.46
2017-05-04T07:48:22.778Z,13.46
2017-05-04T07:49:23.557Z,13.31
2017-05-04T07:50:24.337Z,13.28
2017-05-04T07:51:25.116Z,13.25
2017-05-04T07:52:26.194Z,13.46
2017-05-04T07:53:26.974Z,13.79
2017-05-04T07:54:27.754Z,14.05
2017-05-04T07:55:28.536Z,14.26
2017-05-04T07:56:29.502Z,14.45
2017-05-04T07:57:30.537Z,14.66
2017-05-04T07:58:31.314Z,15.03
2017-05-04T07:59:32.093Z,15.06
2017-05-04T08:00:32.869Z,15.15
2017-05-04T08:01:33.652Z,15.21
2017-05-04T08:02:34.679Z,15.44
2017-05-04T08:03:35.461Z,15.43
2017-05-04T08:04:36.242Z,15.52
2017-05-04T08:05:37.025Z,15.68
2017-05-04T08:06:37.808Z,15.64
2017-05-04T08:07:38.889Z,15.73
2017-05-04T08:08:39.675Z,15.49
2017-05-04T08:09:40.459Z,15.47
2017-05-04T08:10:41.239Z,15.58
2017-05-04T08:11:42.023Z,15.59
2017-05-04T08:12:43.057Z,15.70
2017-05-04T08:13:43.843Z,15.72
2017-05-04T08:14:44.621Z,15.76
2017-05-04T08:15:45.410Z,15.70
2017-05-04T08:16:46.188Z,15.59
2017-05-04T08:17:47.273Z,15.54
2017-05-04T08:18:48.055Z,15.35
2017-05-04T08:19:48.841Z,15.44
2017-05-04T08:20:49.628Z,15.65
2017-05-04T08:21:50.411Z,15.42
2017-05-04T08:22:51.497Z,15.62
2017-05-04T08:23:52.278Z,15.68
2017-05-04T08:24:53.063Z,15.67
2017-05-04T08:25:53.850Z,15.55
2017-05-04T08:26:54.636Z,15.97
2017-05-04T08:27:55.672Z,16.01
2017-05-04T08:28:56.460Z,16.28
2017-05-04T08:29:57.253Z,16.78
2017-05-04T08:30:58.044Z,16.91
2017-05-04T08:31:58.831Z,17.16
2017-05-04T08:32:59.874Z,17.52
2017-05-04T08:34:00.666Z,17.27
2017-05-04T08:35:01.455Z,16.86
2017-05-04T08:36:02.245Z,16.71
2017-05-04T08:37:03.032Z,16.66
2017-05-04T08:38:04.073Z,16.53
2017-05-04T08:39:04.863Z,16.04
2017-05-04T08:40:05.649Z,16.13
2017-05-04T08:41:06.435Z,16.00
2017-05-04T08:42:07.224Z,16.05
2017-05-04T08:43:08.262Z,16.08
2017-05-04T08:44:09.050Z,16.00
2017-05-04T08:45:09.832Z,16.15
2017-05-04T08:46:10.618Z,16.20
2017-05-04T08:47:11.404Z,16.26
2017-05-04T08:48:12.441Z,16.24
2017-05-04T08:49:13.230Z,16.00
2017-05-04T08:50:14.008Z,15.95
2017-05-04T08:51:14.793Z,15.84
2017-05-04T08:52:15.577Z,16.08
2017-05-04T08:53:16.708Z,15.94
2017-05-04T08:54:17.480Z,15.97
2017-05-04T08:55:18.270Z,16.08
2017-05-04T08:56:19.048Z,16.23
2017-05-04T08:57:19.832Z,16.04
2017-05-04T08:58:20.866Z,16.08
2017-05-04T08:59:21.684Z,15.88
2017-05-04T09:00:22.485Z,16.10
2017-05-04T09:01:23.274Z,16.13
2017-05-04T09:02:24.058Z,16.09
2017-05-04T09:03:25.096Z,16.12
2017-05-04T09:04:25.949Z,16.42
2017-05-04T09:05:26.732Z,16.56
2017-05-04T09:06:27.518Z,16.28
2017-05-04T09:07:28.303Z,15.80
2017-05-04T09:08:29.337Z,15.35
2017-05-04T09:09:30.117Z,15.67
2017-05-04T09:10:30.909Z,15.65
2017-05-04T09:11:31.691Z,15.54
2017-05-04T09:12:32.465Z,15.54
2017-05-04T09:13:33.553Z,15.70
2017-05-04T09:14:34.337Z,15.47
2017-05-04T09:15:35.164Z,15.62
2017-05-04T09:16:35.950Z,15.79
2017-05-04T09:17:36.734Z,15.83
2017-05-04T09:18:37.818Z,16.09
2017-05-04T09:19:38.615Z,16.32
2017-05-04T09:20:39.400Z,16.74
2017-05-04T09:21:40.185Z,17.15
2017-05-04T09:22:40.977Z,17.79
2017-05-04T09:23:42.017Z,18.28
2017-05-04T09:24:42.805Z,18.49
2017-05-04T09:25:43.594Z,18.63
2017-05-04T09:26:44.384Z,18.66
2017-05-04T09:27:45.173Z,18.88
2017-05-04T09:28:46.265Z,18.78
2017-05-04T09:29:47.057Z,18.41
2017-05-04T09:30:47.846Z,18.08
2017-05-04T09:31:48.638Z,17.85
2017-05-04T09:32:49.448Z,18.16
2017-05-04T09:33:50.465Z,18.34
2017-05-04T09:34:51.253Z,18.62
2017-05-04T09:35:52.040Z,18.62
2017-05-04T09:36:52.827Z,18.28
2017-05-04T09:37:53.611Z,18.16
2017-05-04T09:38:54.650Z,18.19
2017-05-04T09:39:55.439Z,18.03
2017-05-04T09:40:56.228Z,17.41
2017-05-04T09:41:57.015Z,16.99
2017-05-04T09:42:57.801Z,17.15
2017-05-04T09:43:58.839Z,17.01
2017-05-04T09:44:59.630Z,16.99
2017-05-04T09:46:00.421Z,16.91
2017-05-04T09:47:01.211Z,16.96
2017-05-04T09:48:02.002Z,16.64
2017-05-04T09:49:03.041Z,16.56
2017-05-04T09:50:03.829Z,16.61
2017-05-04T09:51:04.619Z,16.21
2017-05-04T09:52:05.409Z,16.08
2017-05-04T09:53:06.200Z,15.97
2017-05-04T09:54:07.241Z,16.12
2017-05-04T09:55:08.029Z,16.09
2017-05-04T09:56:08.820Z,16.23
2017-05-04T09:57:09.610Z,16.31
2017-05-04T09:58:10.399Z,16.29
2017-05-04T09:59:11.677Z,16.24
2017-05-04T10:00:12.463Z,16.00
2017-05-04T10:01:13.248Z,15.76
2017-05-04T10:02:14.036Z,15.55
2017-05-04T10:03:14.823Z,15.35
2017-05-04T10:04:15.908Z,15.49
2017-05-04T10:05:16.694Z,15.67
2017-05-04T10:06:17.476Z,15.65
2017-05-04T10:07:18.259Z,15.57
2017-05-04T10:08:19.045Z,15.46
2017-05-04T10:09:20.079Z,15.59
2017-05-04T10:10:20.862Z,15.73
2017-05-04T10:11:21.645Z,15.88
2017-05-04T10:12:22.429Z,15.91
2017-05-04T10:13:23.211Z,15.90
2017-05-04T10:14:24.293Z,15.97
2017-05-04T10:15:25.076Z,15.98
2017-05-04T10:16:25.859Z,15.86
2017-05-04T10:17:26.644Z,15.86
2017-05-04T10:18:27.427Z,15.64
2017-05-04T10:19:28.457Z,15.40
2017-05-04T10:20:29.242Z,15.25
2017-05-04T10:21:30.032Z,15.42
2017-05-04T10:22:30.811Z,15.54
2017-05-04T10:23:31.592Z,15.49
2017-05-04T10:24:32.625Z,15.64
2017-05-04T10:25:33.408Z,15.49
2017-05-04T10:26:34.376Z,15.43
2017-05-04T10:27:35.155Z,15.46
2017-05-04T10:28:35.937Z,15.28
2017-05-04T10:29:36.971Z,15.36
2017-05-04T10:30:37.754Z,15.28
2017-05-04T10:31:38.534Z,14.99
2017-05-04T10:32:39.317Z,14.94
2017-05-04T10:33:40.098Z,14.84
2017-05-04T10:34:41.127Z,14.79
2017-05-04T10:35:41.909Z,14.85
2017-05-04T10:36:42.690Z,14.97
2017-05-04T10:37:43.476Z,15.27
2017-05-04T10:38:44.262Z,15.68
2017-05-04T10:39:45.296Z,16.12
2017-05-04T10:40:46.082Z,16.53
2017-05-04T10:41:46.869Z,16.71
2017-05-04T10:42:47.650Z,16.35
2017-05-04T10:43:48.438Z,16.35
2017-05-04T10:44:49.519Z,15.65
2017-05-04T10:45:50.302Z,15.57
2017-05-04T10:46:51.086Z,15.58
2017-05-04T10:47:51.866Z,15.39
2017-05-04T10:48:52.649Z,15.39
2017-05-04T10:49:53.682Z,15.37
2017-05-04T10:50:54.465Z,15.49
2017-05-04T10:51:55.247Z,15.51
2017-05-04T10:52:56.031Z,15.33
2017-05-04T10:53:56.812Z,15.35
2017-05-04T10:54:57.841Z,15.33
2017-05-04T10:55:58.621Z,15.22
2017-05-04T10:56:59.404Z,15.19
2017-05-04T10:58:00.183Z,15.22
2017-05-04T10:59:00.966Z,14.97
2017-05-04T11:00:01.997Z,14.62
2017-05-04T11:01:02.775Z,14.62
2017-05-04T11:02:03.555Z,14.82
2017-05-04T11:03:04.339Z,14.78
2017-05-04T11:04:05.116Z,14.85
2017-05-04T11:05:06.217Z,14.84
2017-05-04T11:06:06.974Z,14.73
2017-05-04T11:07:07.750Z,14.86
2017-05-04T11:08:08.528Z,14.81
2017-05-04T11:09:09.304Z,14.59
2017-05-04T11:10:10.335Z,14.68
2017-05-04T11:11:11.114Z,14.78
2017-05-04T11:12:11.896Z,14.82
2017-05-04T11:13:12.674Z,14.84
2017-05-04T11:14:13.456Z,14.73
2017-05-04T11:15:14.489Z,14.84
2017-05-04T11:16:15.269Z,14.88
2017-05-04T11:17:16.050Z,14.79
2017-05-04T11:18:16.832Z,14.79
2017-05-04T11:19:17.612Z,14.88
2017-05-04T11:20:18.642Z,14.89
2017-05-04T11:21:19.421Z,15.11
2017-05-04T11:22:20.202Z,15.22
2017-05-04T11:23:20.981Z,15.44
2017-05-04T11:24:21.760Z,15.44
2017-05-04T11:25:22.790Z,15.36
2017-05-04T11:26:23.590Z,14.99
2017-05-04T11:27:24.351Z,14.84
2017-05-04T11:28:25.132Z,14.81
2017-05-04T11:29:25.913Z,14.79
2017-05-04T11:30:26.940Z,14.86
2017-05-04T11:31:27.717Z,14.84
2017-05-04T11:32:28.497Z,14.77
2017-05-04T11:33:29.284Z,14.77
2017-05-04T11:34:30.056Z,14.69
2017-05-04T11:35:31.083Z,14.79
2017-05-04T11:36:31.865Z,14.86
2017-05-04T11:37:32.648Z,14.81
2017-05-04T11:38:33.422Z,14.77
2017-05-04T11:39:34.201Z,14.63
2017-05-04T11:40:35.278Z,14.63
2017-05-04T11:41:36.061Z,14.82
2017-05-04T11:42:36.838Z,14.78
2017-05-04T11:43:37.622Z,14.48
2017-05-04T11:44:38.399Z,14.43
2017-05-04T11:45:39.431Z,14.37
2017-05-04T11:46:40.212Z,14.43
2017-05-04T11:47:40.991Z,14.37
2017-05-04T11:48:41.771Z,14.51
2017-05-04T11:49:42.549Z,14.44
2017-05-04T11:50:43.576Z,14.58
2017-05-04T11:51:44.356Z,14.47
2017-05-04T11:52:45.137Z,14.59
2017-05-04T11:53:45.918Z,14.54
2017-05-04T11:54:46.697Z,14.51
2017-05-04T11:55:47.776Z,14.59
2017-05-04T11:56:48.553Z,14.53
2017-05-04T11:57:49.331Z,14.40
2017-05-04T11:58:50.110Z,14.40
2017-05-04T11:59:50.886Z,14.40
2017-05-04T12:00:51.918Z,14.18
2017-05-04T12:01:52.692Z,14.07
2017-05-04T12:02:53.472Z,14.08
2017-05-04T12:03:54.249Z,14.15
2017-05-04T12:04:55.029Z,14.14
2017-05-04T12:05:56.057Z,14.10
2017-05-04T12:06:56.834Z,14.03
2017-05-04T12:07:57.610Z,13.89
2017-05-04T12:08:58.387Z,13.95
2017-05-04T12:09:59.165Z,13.93
2017-05-04T12:11:00.243Z,14.04
2017-05-04T12:12:01.018Z,13.89
2017-05-04T12:13:01.795Z,14.00
2017-05-04T12:14:02.572Z,14.07
2017-05-04T12:15:03.350Z,13.93
2017-05-04T12:16:04.379Z,13.78
2017-05-04T12:17:05.153Z,13.74
2017-05-04T12:18:05.930Z,13.79
2017-05-04T12:19:06.706Z,13.77
2017-05-04T12:20:07.484Z,13.79
2017-05-04T12:21:08.515Z,13.74
2017-05-04T12:22:09.291Z,13.72
2017-05-04T12:23:10.067Z,13.65
2017-05-04T12:24:10.844Z,13.70
2017-05-04T12:25:11.622Z,13.59
2017-05-04T12:26:12.646Z,13.50
2017-05-04T12:27:13.609Z,13.44
2017-05-04T12:28:14.387Z,13.28
2017-05-04T12:29:15.165Z,13.38
2017-05-04T12:30:15.942Z,13.33
2017-05-04T12:31:17.016Z,13.25
2017-05-04T12:32:17.794Z,13.47
2017-05-04T12:33:18.574Z,13.37
2017-05-04T12:34:19.352Z,13.35
2017-05-04T12:35:20.128Z,13.47
2017-05-04T12:36:21.159Z,13.46
2017-05-04T12:37:21.935Z,13.30
2017-05-04T12:38:22.712Z,13.31
2017-05-04T12:39:23.490Z,13.38
2017-05-04T12:40:24.456Z,13.23
2017-05-04T12:41:25.482Z,13.15
2017-05-04T12:42:26.261Z,13.11
2017-05-04T12:43:27.038Z,13.11
2017-05-04T12:44:27.817Z,13.23
2017-05-04T12:45:28.596Z,13.23
2017-05-04T12:46:29.623Z,13.44
2017-05-04T12:47:30.399Z,13.46
2017-05-04T12:48:31.175Z,13.37
2017-05-04T12:49:31.952Z,13.33
2017-05-04T12:50:32.728Z,13.37
2017-05-04T12:51:33.756Z,13.38
2017-05-04T12:52:34.532Z,13.38
2017-05-04T12:53:35.311Z,13.44
2017-05-04T12:54:36.094Z,13.47
2017-05-04T12:55:36.867Z,13.42
2017-05-04T12:56:37.892Z,13.20
2017-05-04T12:57:38.671Z,13.13
2017-05-04T12:58:39.449Z,13.27
2017-05-04T12:59:40.409Z,13.37
2017-05-04T13:00:41.183Z,13.41
2017-05-04T13:01:42.211Z,13.33
2017-05-04T13:02:43.189Z,13.41
2017-05-04T13:03:43.969Z,13.47
2017-05-04T13:04:44.746Z,13.49
2017-05-04T13:05:45.523Z,13.47
2017-05-04T13:06:46.546Z,13.47
2017-05-04T13:07:47.323Z,13.49
2017-05-04T13:08:48.103Z,13.47